createdAt,value
2018-11-26T00:00:23.717Z,64.20
2018-11-26T00:01:23.712Z,57.50
2018-11-26T00:02:23.721Z,59.10
2018-11-26T00:03:23.712Z,61.40
2018-11-26T00:04:23.674Z,57.50
2018-11-26T00:05:23.668Z,60.30
2018-11-26T00:06:23.664Z,59.00
2018-11-26T00:07:23.662Z,57.50
2018-11-26T00:08:23.631Z,55.20
2018-11-26T00:09:23.623Z,57.70
2018-11-26T00:10:23.616Z,61.00
2018-11-26T00:11:23.624Z,57.30
2018-11-26T00:12:23.639Z,56.00
2018-11-26T00:13:23.584Z,57.40
2018-11-26T00:14:23.570Z,57.80
2018-11-26T00:15:23.555Z,57.60
2018-11-26T00:16:23.547Z,56.20
2018-11-26T00:17:23.565Z,54.20
2018-11-26T00:18:23.547Z,56.90
2018-11-26T00:19:23.515Z,55.30
2018-11-26T00:20:23.531Z,55.40
2018-11-26T00:21:23.498Z,56.00
2018-11-26T00:22:23.482Z,58.00
2018-11-26T00:23:23.497Z,58.70
2018-11-26T00:24:23.467Z,59.10
2018-11-26T00:25:23.458Z,58.40
2018-11-26T00:26:23.440Z,56.80
2018-11-26T00:27:23.433Z,57.60
2018-11-26T00:28:23.460Z,60.30
2018-11-26T00:29:23.415Z,58.00
2018-11-26T00:30:23.401Z,55.60
2018-11-26T00:31:23.387Z,54.50
2018-11-26T00:32:23.384Z,53.80
2018-11-26T00:33:23.364Z,57.00
2018-11-26T00:34:23.369Z,58.60
2018-11-26T00:35:23.359Z,56.80
2018-11-26T00:36:23.340Z,54.00
2018-11-26T00:37:23.325Z,54.10
2018-11-26T00:38:23.326Z,59.00
2018-11-26T00:39:23.326Z,56.00
2018-11-26T00:40:23.298Z,60.20
2018-11-26T00:41:23.280Z,57.00
2018-11-26T00:42:23.267Z,59.50
2018-11-26T00:43:23.259Z,58.30
2018-11-26T00:44:23.282Z,56.40
2018-11-26T00:45:23.232Z,57.80
2018-11-26T00:46:23.226Z,63.00
2018-11-26T00:47:23.235Z,61.60
2018-11-26T00:48:23.224Z,63.40
2018-11-26T00:49:23.206Z,62.20
2018-11-26T00:50:23.193Z,65.80
2018-11-26T00:51:23.194Z,66.90
2018-11-26T00:52:23.184Z,69.00
2018-11-26T00:53:23.162Z,63.10
2018-11-26T00:54:23.143Z,69.80
2018-11-26T00:55:23.132Z,69.20
2018-11-26T00:56:23.125Z,65.00
2018-11-26T00:57:23.122Z,70.40
2018-11-26T00:58:23.114Z,67.80
2018-11-26T00:59:23.088Z,66.00
2018-11-26T01:00:23.076Z,66.60
2018-11-26T01:01:23.077Z,67.60
2018-11-26T01:02:23.068Z,67.70
2018-11-26T01:03:23.040Z,64.80
2018-11-26T01:04:23.033Z,62.80
2018-11-26T01:05:23.032Z,65.20
2018-11-26T01:06:23.011Z,58.50
2018-11-26T01:07:23.031Z,64.40
2018-11-26T01:08:22.985Z,63.10
2018-11-26T01:09:22.975Z,62.60
2018-11-26T01:10:22.968Z,63.60
2018-11-26T01:11:22.954Z,60.90
2018-11-26T01:12:22.981Z,60.10
2018-11-26T01:13:22.951Z,58.00
2018-11-26T01:14:22.943Z,60.20
2018-11-26T01:15:22.909Z,59.90
2018-11-26T01:16:22.926Z,67.00
2018-11-26T01:17:22.895Z,60.30
2018-11-26T01:18:22.940Z,65.60
2018-11-26T01:19:22.895Z,66.70
2018-11-26T01:20:22.862Z,67.00
2018-11-26T01:21:22.859Z,63.00
2018-11-26T01:22:22.858Z,64.20
2018-11-26T01:23:22.856Z,63.20
2018-11-26T01:24:22.823Z,63.80
2018-11-26T01:25:22.808Z,62.00
2018-11-26T01:26:22.793Z,65.40
2018-11-26T01:27:22.786Z,64.30
2018-11-26T01:28:22.818Z,64.00
2018-11-26T01:29:22.771Z,59.80
2018-11-26T01:30:22.750Z,62.50
2018-11-26T01:31:22.750Z,64.20
2018-11-26T01:32:22.763Z,62.50
2018-11-26T01:33:22.737Z,65.00
2018-11-26T01:34:22.749Z,63.10
2018-11-26T01:35:22.701Z,65.10
2018-11-26T01:36:22.698Z,61.60
2018-11-26T01:37:22.678Z,64.50
2018-11-26T01:38:22.676Z,66.20
2018-11-26T01:39:22.683Z,59.40
2018-11-26T01:40:22.641Z,61.50
2018-11-26T01:41:22.628Z,61.10
2018-11-26T01:42:22.625Z,62.10
2018-11-26T01:43:22.618Z,60.60
2018-11-26T01:44:22.657Z,69.10
2018-11-26T01:45:22.600Z,68.20
2018-11-26T01:46:22.590Z,66.60
2018-11-26T01:47:22.575Z,64.70
2018-11-26T01:48:22.556Z,66.50
2018-11-26T01:49:22.546Z,69.60
2018-11-26T01:50:22.603Z,72.80
2018-11-26T01:51:22.572Z,70.60
2018-11-26T01:52:22.521Z,71.40
2018-11-26T01:53:22.500Z,76.80
2018-11-26T01:54:22.518Z,76.40
2018-11-26T01:55:22.500Z,73.20
2018-11-26T01:56:22.469Z,78.00
2018-11-26T01:57:22.501Z,71.60
2018-11-26T01:58:22.472Z,76.00
2018-11-26T01:59:22.438Z,70.60
2018-11-26T02:00:22.460Z,70.90
2018-11-26T02:01:22.418Z,84.20
2018-11-26T02:02:22.411Z,91.60
2018-11-26T02:03:22.404Z,75.50
2018-11-26T02:04:22.381Z,71.70
2018-11-26T02:05:22.380Z,71.30
2018-11-26T02:06:22.385Z,73.10
2018-11-26T02:07:22.349Z,74.10
2018-11-26T02:08:22.381Z,80.10
2018-11-26T02:09:22.369Z,83.50
2018-11-26T02:10:22.320Z,82.90
2018-11-26T02:11:22.320Z,78.40
2018-11-26T02:12:22.325Z,88.50
2018-11-26T02:13:22.295Z,84.80
2018-11-26T02:14:22.311Z,74.10
2018-11-26T02:15:22.281Z,91.00
2018-11-26T02:16:22.256Z,93.50
2018-11-26T02:17:22.296Z,82.00
2018-11-26T02:18:22.234Z,80.00
2018-11-26T02:19:22.228Z,77.70
2018-11-26T02:20:22.214Z,83.60
2018-11-26T02:21:22.208Z,101.80
2018-11-26T02:22:22.207Z,76.00
2018-11-26T02:23:22.196Z,80.10
2018-11-26T02:24:22.173Z,87.30
2018-11-26T02:25:22.164Z,82.30
2018-11-26T02:26:22.159Z,82.80
2018-11-26T02:27:22.172Z,80.80
2018-11-26T02:28:22.149Z,88.60
2018-11-26T02:29:22.122Z,89.60
2018-11-26T02:30:22.127Z,98.80
2018-11-26T02:31:22.098Z,98.10
2018-11-26T02:32:22.118Z,97.30
2018-11-26T02:33:22.094Z,96.00
2018-11-26T02:34:22.063Z,97.90
2018-11-26T02:35:22.068Z,83.10
2018-11-26T02:36:22.054Z,83.50
2018-11-26T02:37:22.030Z,82.00
2018-11-26T02:38:22.047Z,88.00
2018-11-26T02:39:22.013Z,87.80
2018-11-26T02:40:21.995Z,84.60
2018-11-26T02:41:21.996Z,84.40
2018-11-26T02:42:21.991Z,85.70
2018-11-26T02:43:22.034Z,78.10
2018-11-26T02:44:21.952Z,72.50
2018-11-26T02:45:21.957Z,81.80
2018-11-26T02:46:21.962Z,80.50
2018-11-26T02:47:21.950Z,78.20
2018-11-26T02:48:21.935Z,71.40
2018-11-26T02:49:21.903Z,71.40
2018-11-26T02:50:21.914Z,74.40
2018-11-26T02:51:21.880Z,75.30
2018-11-26T02:52:21.870Z,72.70
2018-11-26T02:53:21.926Z,73.00
2018-11-26T02:54:21.859Z,69.20
2018-11-26T02:55:21.844Z,63.20
2018-11-26T02:56:21.832Z,72.10
2018-11-26T02:57:21.812Z,66.50
2018-11-26T02:58:21.826Z,69.00
2018-11-26T02:59:21.798Z,67.20
2018-11-26T03:00:21.787Z,68.90
2018-11-26T03:01:21.774Z,66.40
2018-11-26T03:02:21.762Z,71.60
2018-11-26T03:03:21.784Z,69.00
2018-11-26T03:04:21.743Z,69.80
2018-11-26T03:05:21.733Z,64.70
2018-11-26T03:06:21.724Z,69.20
2018-11-26T03:07:21.718Z,71.40
2018-11-26T03:08:21.730Z,66.30
2018-11-26T03:09:21.706Z,67.70
2018-11-26T03:10:21.679Z,68.80
2018-11-26T03:11:21.689Z,63.90
2018-11-26T03:12:21.663Z,66.90
2018-11-26T03:13:21.649Z,73.30
2018-11-26T03:14:21.660Z,72.90
2018-11-26T03:15:21.635Z,67.70
2018-11-26T03:16:21.627Z,67.40
2018-11-26T03:17:21.602Z,69.90
2018-11-26T03:18:21.599Z,69.80
2018-11-26T03:19:21.593Z,65.50
2018-11-26T03:20:21.574Z,74.30
2018-11-26T03:21:21.555Z,66.80
2018-11-26T03:22:21.556Z,67.60
2018-11-26T03:23:21.535Z,60.80
2018-11-26T03:24:21.554Z,59.30
2018-11-26T03:25:21.539Z,61.00
2018-11-26T03:26:21.499Z,57.50
2018-11-26T03:27:21.494Z,57.30
2018-11-26T03:28:21.511Z,51.90
2018-11-26T03:29:21.488Z,49.50
2018-11-26T03:30:21.473Z,51.60
2018-11-26T03:31:21.484Z,52.90
2018-11-26T03:32:21.447Z,51.90
2018-11-26T03:33:21.465Z,53.90
2018-11-26T03:34:21.448Z,51.10
2018-11-26T03:35:21.412Z,51.80
2018-11-26T03:36:21.393Z,49.00
2018-11-26T03:37:21.407Z,47.90
2018-11-26T03:38:21.413Z,49.60
2018-11-26T03:39:21.367Z,48.70
2018-11-26T03:40:21.361Z,49.90
2018-11-26T03:41:21.347Z,46.50
2018-11-26T03:42:21.336Z,49.10
2018-11-26T03:43:26.479Z,47.90
2018-11-26T03:44:21.307Z,47.40
2018-11-26T03:45:21.337Z,49.70
2018-11-26T03:46:21.303Z,51.40
2018-11-26T03:47:21.298Z,50.40
2018-11-26T03:48:21.268Z,50.70
2018-11-26T03:49:21.298Z,52.20
2018-11-26T03:50:21.248Z,53.90
2018-11-26T03:51:21.230Z,56.00
2018-11-26T03:52:21.226Z,60.30
2018-11-26T03:53:21.214Z,58.60
2018-11-26T03:54:26.460Z,57.70
2018-11-26T03:55:21.233Z,56.10
2018-11-26T03:56:21.193Z,58.00
2018-11-26T03:57:21.203Z,59.60
2018-11-26T03:58:21.188Z,61.30
2018-11-26T03:59:21.145Z,59.80
2018-11-26T04:00:21.160Z,59.00
2018-11-26T04:01:21.123Z,61.30
2018-11-26T04:02:21.133Z,59.80
2018-11-26T04:03:21.137Z,60.80
2018-11-26T04:04:21.091Z,63.40
2018-11-26T04:05:21.097Z,60.00
2018-11-26T04:06:21.099Z,53.10
2018-11-26T04:07:21.058Z,57.80
2018-11-26T04:08:21.092Z,55.50
2018-11-26T04:09:21.068Z,58.30
2018-11-26T04:10:21.034Z,60.00
2018-11-26T04:11:21.022Z,56.00
2018-11-26T04:12:21.024Z,58.40
2018-11-26T04:13:20.993Z,57.80
2018-11-26T04:14:21.020Z,60.30
2018-11-26T04:15:20.978Z,57.60
2018-11-26T04:16:20.971Z,61.50
2018-11-26T04:17:20.960Z,59.30
2018-11-26T04:18:20.956Z,58.60
2018-11-26T04:19:20.987Z,59.30
2018-11-26T04:20:20.929Z,56.60
2018-11-26T04:21:20.906Z,60.70
2018-11-26T04:22:20.912Z,60.90
2018-11-26T04:23:20.905Z,61.50
2018-11-26T04:24:20.875Z,59.60
2018-11-26T04:25:20.900Z,59.20
2018-11-26T04:26:20.857Z,72.40
2018-11-26T04:27:20.850Z,69.40
2018-11-26T04:28:20.833Z,64.70
2018-11-26T04:29:20.828Z,71.80
2018-11-26T04:30:20.833Z,70.80
2018-11-26T04:31:20.798Z,70.10
2018-11-26T04:32:20.789Z,70.20
2018-11-26T04:33:20.783Z,73.00
2018-11-26T04:34:20.770Z,71.30
2018-11-26T04:35:20.798Z,71.90
2018-11-26T04:36:20.743Z,73.90
2018-11-26T04:37:20.738Z,70.00
2018-11-26T04:38:20.729Z,64.70
2018-11-26T04:39:20.713Z,69.00
2018-11-26T04:40:20.704Z,60.10
2018-11-26T04:41:20.708Z,62.60
2018-11-26T04:42:20.682Z,64.00
2018-11-26T04:43:20.674Z,62.60
2018-11-26T04:44:20.659Z,61.00
2018-11-26T04:45:20.650Z,62.00
2018-11-26T04:46:20.671Z,62.30
2018-11-26T04:47:20.629Z,69.60
2018-11-26T04:48:20.623Z,64.40
2018-11-26T04:49:20.614Z,64.00
2018-11-26T04:50:20.591Z,61.50
2018-11-26T04:51:20.623Z,62.30
2018-11-26T04:52:20.584Z,59.70
2018-11-26T04:53:20.566Z,63.10
2018-11-26T04:54:20.550Z,59.40
2018-11-26T04:55:20.540Z,62.60
2018-11-26T04:56:20.564Z,61.40
2018-11-26T04:57:20.519Z,65.80
2018-11-26T04:58:20.514Z,60.30
2018-11-26T04:59:20.510Z,63.70
2018-11-26T05:00:20.499Z,65.40
2018-11-26T05:01:20.498Z,69.00
2018-11-26T05:02:20.492Z,66.40
2018-11-26T05:03:20.458Z,67.90
2018-11-26T05:04:20.444Z,68.00
2018-11-26T05:05:20.439Z,65.30
2018-11-26T05:06:20.419Z,65.60
2018-11-26T05:07:20.434Z,64.60
2018-11-26T05:08:20.405Z,68.90
2018-11-26T05:09:20.413Z,70.30
2018-11-26T05:10:20.392Z,70.00
2018-11-26T05:11:20.373Z,75.90
2018-11-26T05:12:20.360Z,70.60
2018-11-26T05:13:20.378Z,74.50
2018-11-26T05:14:20.367Z,77.00
2018-11-26T05:15:20.327Z,75.50
2018-11-26T05:16:20.326Z,75.90
2018-11-26T05:17:20.311Z,70.80
2018-11-26T05:18:20.298Z,73.10
2018-11-26T05:19:20.307Z,79.60
2018-11-26T05:20:20.273Z,79.70
2018-11-26T05:21:20.275Z,83.90
2018-11-26T05:22:20.248Z,80.50
2018-11-26T05:23:20.244Z,75.60
2018-11-26T05:24:20.266Z,76.30
2018-11-26T05:25:20.231Z,72.80
2018-11-26T05:26:20.206Z,78.30
2018-11-26T05:27:20.226Z,76.70
2018-11-26T05:28:20.215Z,79.40
2018-11-26T05:29:20.168Z,74.10
2018-11-26T05:30:20.194Z,80.10
2018-11-26T05:31:20.181Z,77.10
2018-11-26T05:32:20.139Z,91.70
2018-11-26T05:33:20.167Z,85.20
2018-11-26T05:34:20.136Z,84.60
2018-11-26T05:35:20.111Z,95.40
2018-11-26T05:36:20.136Z,84.90
2018-11-26T05:37:20.102Z,85.00
2018-11-26T05:38:20.074Z,87.00
2018-11-26T05:39:20.070Z,97.40
2018-11-26T05:40:20.056Z,83.10
2018-11-26T05:41:20.044Z,86.70
2018-11-26T05:42:20.058Z,91.90
2018-11-26T05:43:20.026Z,87.50
2018-11-26T05:44:20.010Z,91.10
2018-11-26T05:45:20.026Z,78.00
2018-11-26T05:46:19.990Z,99.60
2018-11-26T05:47:20.002Z,98.20
2018-11-26T05:48:19.967Z,97.40
2018-11-26T05:49:19.969Z,92.10
2018-11-26T05:50:19.968Z,106.80
2018-11-26T05:51:19.951Z,105.20
2018-11-26T05:52:19.952Z,89.50
2018-11-26T05:53:19.928Z,98.30
2018-11-26T05:54:19.898Z,94.90
2018-11-26T05:55:19.892Z,87.00
2018-11-26T05:56:19.879Z,93.90
2018-11-26T05:57:19.873Z,97.90
2018-11-26T05:58:19.884Z,90.40
2018-11-26T05:59:19.852Z,91.10
2018-11-26T06:00:19.849Z,96.80
2018-11-26T06:01:19.824Z,83.70
2018-11-26T06:02:19.814Z,101.00
2018-11-26T06:03:19.822Z,104.90
2018-11-26T06:04:19.800Z,95.60
2018-11-26T06:05:19.791Z,94.70
2018-11-26T06:06:19.796Z,101.50
2018-11-26T06:07:19.761Z,91.00
2018-11-26T06:08:19.771Z,93.60
2018-11-26T06:09:19.740Z,93.30
2018-11-26T06:10:19.725Z,106.90
2018-11-26T06:11:19.715Z,97.60
2018-11-26T06:12:19.702Z,102.80
2018-11-26T06:13:19.717Z,104.60
2018-11-26T06:14:19.689Z,93.40
2018-11-26T06:15:19.677Z,91.60
2018-11-26T06:16:19.660Z,85.00
2018-11-26T06:17:19.702Z,82.60
2018-11-26T06:18:19.643Z,87.00
2018-11-26T06:19:19.651Z,89.00
2018-11-26T06:20:19.797Z,94.90
2018-11-26T06:21:19.621Z,88.10
2018-11-26T06:22:19.600Z,87.80
2018-11-26T06:23:19.593Z,105.70
2018-11-26T06:24:19.600Z,101.20
2018-11-26T06:25:19.563Z,94.10
2018-11-26T06:26:19.561Z,104.00
2018-11-26T06:27:19.568Z,93.70
2018-11-26T06:28:19.529Z,87.60
2018-11-26T06:29:19.549Z,85.10
2018-11-26T06:30:19.514Z,86.50
2018-11-26T06:31:19.497Z,85.50
2018-11-26T06:32:19.485Z,93.90
2018-11-26T06:33:19.481Z,92.40
2018-11-26T06:34:19.468Z,94.70
2018-11-26T06:35:19.487Z,97.70
2018-11-26T06:36:19.449Z,89.60
2018-11-26T06:37:19.429Z,90.60
2018-11-26T06:38:19.423Z,97.30
2018-11-26T06:39:19.424Z,86.40
2018-11-26T06:40:19.421Z,89.10
2018-11-26T06:41:19.385Z,87.60
2018-11-26T06:42:19.389Z,88.20
2018-11-26T06:43:19.367Z,84.30
2018-11-26T06:44:19.393Z,86.10
2018-11-26T06:45:19.371Z,88.30
2018-11-26T06:46:19.336Z,88.10
2018-11-26T06:47:19.327Z,93.00
2018-11-26T06:48:19.317Z,85.80
2018-11-26T06:49:19.300Z,88.90
2018-11-26T06:50:19.342Z,92.80
2018-11-26T06:51:19.298Z,89.30
2018-11-26T06:52:19.269Z,93.90
2018-11-26T06:53:19.294Z,91.60
2018-11-26T06:54:19.254Z,87.60
2018-11-26T06:55:19.233Z,80.20
2018-11-26T06:56:19.272Z,87.80
2018-11-26T06:57:19.215Z,84.10
2018-11-26T06:58:19.211Z,90.10
2018-11-26T06:59:19.201Z,84.40
2018-11-26T07:00:19.188Z,80.50
2018-11-26T07:01:19.204Z,81.60
2018-11-26T07:02:19.167Z,81.80
2018-11-26T07:03:19.149Z,85.30
2018-11-26T07:04:19.142Z,87.80
2018-11-26T07:05:19.134Z,76.80
2018-11-26T07:06:19.159Z,80.40
2018-11-26T07:07:19.106Z,77.20
2018-11-26T07:08:19.103Z,84.20
2018-11-26T07:09:19.080Z,84.10
2018-11-26T07:10:19.072Z,83.00
2018-11-26T07:11:19.093Z,89.30
2018-11-26T07:12:19.084Z,80.60
2018-11-26T07:13:19.061Z,82.00
2018-11-26T07:14:19.028Z,76.20
2018-11-26T07:15:19.019Z,82.10
2018-11-26T07:16:19.015Z,81.60
2018-11-26T07:17:19.022Z,84.90
2018-11-26T07:18:18.983Z,77.10
2018-11-26T07:19:18.979Z,79.40
2018-11-26T07:20:18.968Z,77.90
2018-11-26T07:21:18.953Z,82.70
2018-11-26T07:22:18.982Z,74.10
2018-11-26T07:23:18.952Z,78.50
2018-11-26T07:24:18.922Z,72.80
2018-11-26T07:25:18.910Z,80.90
2018-11-26T07:26:18.911Z,73.50
2018-11-26T07:27:18.891Z,80.10
2018-11-26T07:28:18.899Z,74.80
2018-11-26T07:29:23.997Z,77.60
2018-11-26T07:30:19.864Z,79.90
2018-11-26T07:31:18.843Z,81.80
2018-11-26T07:32:18.846Z,74.20
2018-11-26T07:33:18.851Z,78.20
2018-11-26T07:34:18.812Z,76.50
2018-11-26T07:35:18.808Z,82.20
2018-11-26T07:36:18.791Z,77.90
2018-11-26T07:37:18.795Z,83.00
2018-11-26T07:38:18.805Z,82.10
2018-11-26T07:39:18.757Z,83.50
2018-11-26T07:40:18.782Z,78.80
2018-11-26T07:41:18.741Z,78.10
2018-11-26T07:42:18.737Z,81.20
2018-11-26T07:43:18.736Z,83.10
2018-11-26T07:44:18.719Z,82.80
2018-11-26T07:45:18.703Z,81.80
2018-11-26T07:46:18.682Z,79.50
2018-11-26T07:47:18.678Z,77.30
2018-11-26T07:48:18.665Z,82.30
2018-11-26T07:49:18.672Z,73.60
2018-11-26T07:50:26.249Z,79.40
2018-11-26T07:51:18.633Z,83.20
2018-11-26T07:52:18.619Z,73.10
2018-11-26T07:53:18.603Z,78.90
2018-11-26T07:54:18.620Z,80.20
2018-11-26T07:55:18.616Z,74.30
2018-11-26T07:56:18.577Z,79.00
2018-11-26T07:57:18.565Z,79.30
2018-11-26T07:58:18.559Z,77.50
2018-11-26T07:59:18.543Z,81.10
2018-11-26T08:00:18.571Z,79.50
2018-11-26T08:01:18.517Z,98.60
2018-11-26T08:02:18.508Z,100.00
2018-11-26T08:03:18.497Z,86.80
2018-11-26T08:04:18.495Z,90.30
2018-11-26T08:05:18.516Z,88.00
2018-11-26T08:06:18.472Z,87.30
2018-11-26T08:07:18.535Z,87.90
2018-11-26T08:08:18.440Z,88.80
2018-11-26T08:09:18.436Z,87.60
2018-11-26T08:10:18.441Z,83.10
2018-11-26T08:11:18.410Z,88.60
2018-11-26T08:12:18.424Z,87.90
2018-11-26T08:13:18.406Z,87.90
2018-11-26T08:14:18.384Z,90.30
2018-11-26T08:15:18.367Z,88.10
2018-11-26T08:16:18.364Z,94.40
2018-11-26T08:17:18.366Z,90.50
2018-11-26T08:18:18.356Z,85.80
2018-11-26T08:19:18.333Z,98.10
2018-11-26T08:20:18.403Z,87.50
2018-11-26T08:21:18.321Z,88.00
2018-11-26T08:22:18.322Z,86.90
2018-11-26T08:23:18.309Z,91.70
2018-11-26T08:24:18.310Z,90.80
2018-11-26T08:25:18.268Z,98.20
2018-11-26T08:26:18.248Z,94.40
2018-11-26T08:27:18.252Z,85.00
2018-11-26T08:28:18.231Z,86.40
2018-11-26T08:29:18.264Z,93.30
2018-11-26T08:30:18.204Z,89.20
2018-11-26T08:31:18.192Z,91.20
2018-11-26T08:32:18.189Z,94.20
2018-11-26T08:33:18.195Z,83.00
2018-11-26T08:34:18.188Z,92.80
2018-11-26T08:35:18.168Z,86.40
2018-11-26T08:36:18.137Z,88.20
2018-11-26T08:37:18.124Z,91.80
2018-11-26T08:38:18.115Z,87.30
2018-11-26T08:39:18.125Z,83.20
2018-11-26T08:40:18.096Z,85.60
2018-11-26T08:41:18.086Z,88.30
2018-11-26T08:42:18.078Z,83.40
2018-11-26T08:43:18.066Z,93.80
2018-11-26T08:44:18.088Z,82.20
2018-11-26T08:45:18.042Z,82.20
2018-11-26T08:46:18.032Z,87.50
2018-11-26T08:47:18.027Z,84.90
2018-11-26T08:48:18.005Z,83.70
2018-11-26T08:49:18.005Z,87.80
2018-11-26T08:50:18.109Z,86.30
2018-11-26T08:51:17.974Z,83.60
2018-11-26T08:52:17.968Z,90.30
2018-11-26T08:53:17.997Z,78.50
2018-11-26T08:54:17.948Z,81.60
2018-11-26T08:55:17.971Z,76.20
2018-11-26T08:56:18.019Z,73.70
2018-11-26T08:57:17.924Z,79.80
2018-11-26T08:58:17.919Z,73.00
2018-11-26T09:00:34.151Z,76.40
2018-11-26T09:01:34.101Z,75.90
2018-11-26T09:02:34.100Z,76.70
2018-11-26T09:03:34.081Z,80.70
2018-11-26T09:04:34.068Z,79.50
2018-11-26T09:05:34.107Z,70.30
2018-11-26T09:06:34.051Z,77.10
2018-11-26T09:07:34.040Z,77.00
2018-11-26T09:08:34.023Z,74.70
2018-11-26T09:09:34.020Z,74.00
2018-11-26T09:10:34.023Z,72.70
2018-11-26T09:11:34.017Z,74.30
2018-11-26T09:12:33.993Z,76.00
2018-11-26T09:13:33.988Z,72.10
2018-11-26T09:14:33.962Z,74.10
2018-11-26T09:15:33.976Z,74.20
2018-11-26T09:16:33.965Z,67.70
2018-11-26T09:17:33.945Z,70.60
2018-11-26T09:18:33.928Z,75.30
2018-11-26T09:19:33.906Z,83.00
2018-11-26T09:20:33.897Z,72.20
2018-11-26T09:21:33.928Z,77.90
2018-11-26T09:22:33.907Z,77.10
2018-11-26T09:23:33.860Z,72.60
2018-11-26T09:24:33.855Z,71.00
2018-11-26T09:25:33.835Z,70.10
2018-11-26T09:26:33.830Z,71.00
2018-11-26T09:27:33.845Z,64.40
2018-11-26T09:28:33.829Z,67.60
2018-11-26T09:29:33.795Z,68.70
2018-11-26T09:30:33.784Z,70.00
2018-11-26T09:31:33.768Z,72.20
2018-11-26T09:32:33.788Z,69.80
2018-11-26T09:33:33.788Z,68.50
2018-11-26T09:34:33.741Z,71.40
2018-11-26T09:35:33.725Z,66.90
2018-11-26T09:36:33.722Z,65.50
2018-11-26T09:37:33.735Z,63.30
2018-11-26T09:38:33.699Z,67.80
2018-11-26T09:39:33.691Z,66.80
2018-11-26T09:40:33.708Z,65.70
2018-11-26T09:41:33.659Z,66.90
2018-11-26T09:42:33.660Z,60.60
2018-11-26T09:43:33.664Z,63.30
2018-11-26T09:44:33.627Z,66.50
2018-11-26T09:45:40.021Z,67.60
2018-11-26T09:46:34.601Z,61.60
2018-11-26T09:47:33.592Z,64.10
2018-11-26T09:48:33.604Z,59.80
2018-11-26T09:49:33.594Z,63.60
2018-11-26T09:50:33.556Z,60.00
2018-11-26T09:51:41.640Z,58.60
2018-11-26T09:52:34.539Z,57.40
2018-11-26T09:53:33.549Z,60.00
2018-11-26T09:54:33.532Z,55.00
2018-11-26T09:55:33.551Z,53.60
2018-11-26T09:56:33.491Z,55.10
2018-11-26T09:57:33.494Z,54.50
2018-11-26T09:58:33.517Z,52.20
2018-11-26T09:59:33.462Z,59.10
2018-11-26T10:00:33.457Z,55.20
2018-11-26T10:01:33.443Z,53.00
2018-11-26T10:02:33.441Z,55.60
2018-11-26T10:03:33.438Z,55.00
2018-11-26T10:04:33.423Z,54.60
2018-11-26T10:05:33.395Z,53.50
2018-11-26T10:06:33.427Z,57.40
2018-11-26T10:07:33.382Z,52.90
2018-11-26T10:08:33.425Z,53.70
2018-11-26T10:09:33.381Z,51.20
2018-11-26T10:10:33.342Z,51.50
2018-11-26T10:11:33.335Z,52.50
2018-11-26T10:12:33.324Z,50.90
2018-11-26T10:13:33.308Z,49.20
2018-11-26T10:14:33.324Z,51.90
2018-11-26T10:15:33.300Z,50.70
2018-11-26T10:16:33.590Z,50.00
2018-11-26T10:17:33.280Z,51.70
2018-11-26T10:18:33.258Z,49.00
2018-11-26T10:19:33.305Z,49.40
2018-11-26T10:20:33.235Z,48.60
2018-11-26T10:21:33.227Z,49.40
2018-11-26T10:22:33.207Z,49.20
2018-11-26T10:23:33.208Z,48.00
2018-11-26T10:24:33.183Z,46.60
2018-11-26T10:25:33.196Z,50.00
2018-11-26T10:26:33.188Z,47.20
2018-11-26T10:27:33.151Z,47.20
2018-11-26T10:28:33.147Z,46.20
2018-11-26T10:29:33.132Z,44.60
2018-11-26T10:30:33.139Z,45.70
2018-11-26T10:31:33.108Z,49.70
2018-11-26T10:32:33.136Z,45.80
2018-11-26T10:33:33.089Z,45.50
2018-11-26T10:34:33.075Z,44.30
2018-11-26T10:35:33.068Z,44.80
2018-11-26T10:36:33.071Z,44.80
2018-11-26T10:37:33.122Z,46.50
2018-11-26T10:38:33.058Z,44.70
2018-11-26T10:39:33.112Z,45.00
2018-11-26T10:40:33.048Z,43.30
2018-11-26T10:41:32.999Z,41.60
2018-11-26T10:42:33.015Z,43.20
2018-11-26T10:43:32.992Z,43.30
2018-11-26T10:44:32.967Z,44.30
2018-11-26T10:45:32.964Z,43.90
2018-11-26T10:46:32.947Z,45.90
2018-11-26T10:47:32.948Z,45.00
2018-11-26T10:48:32.943Z,43.50
2018-11-26T10:49:32.919Z,42.90
2018-11-26T10:50:32.940Z,44.60
2018-11-26T10:51:32.902Z,42.50
2018-11-26T10:52:32.965Z,44.60
2018-11-26T10:53:34.317Z,42.50
2018-11-26T10:54:32.858Z,43.50
2018-11-26T10:55:32.849Z,43.20
2018-11-26T10:56:32.861Z,45.30
2018-11-26T10:57:32.825Z,45.10
2018-11-26T10:58:32.865Z,44.70
2018-11-26T10:59:32.818Z,42.70
2018-11-26T11:00:32.796Z,44.10
2018-11-26T11:01:32.785Z,43.20
2018-11-26T11:02:32.795Z,43.60
2018-11-26T11:03:32.765Z,41.30
2018-11-26T11:04:32.761Z,40.00
2018-11-26T11:05:32.756Z,41.50
2018-11-26T11:06:32.731Z,43.50
2018-11-26T11:07:32.767Z,41.50
2018-11-26T11:08:32.714Z,40.90
2018-11-26T11:09:32.716Z,43.30
2018-11-26T11:10:32.693Z,42.60
2018-11-26T11:11:32.677Z,44.20
2018-11-26T11:12:32.690Z,41.50
2018-11-26T11:13:32.660Z,41.10
2018-11-26T11:14:32.649Z,41.70
2018-11-26T11:15:32.628Z,41.00
2018-11-26T11:16:32.657Z,40.80
2018-11-26T11:17:32.632Z,39.40
2018-11-26T11:18:32.595Z,39.10
2018-11-26T11:19:32.597Z,37.60
2018-11-26T11:20:32.580Z,37.90
2018-11-26T11:21:32.564Z,38.80
2018-11-26T11:22:32.584Z,40.20
2018-11-26T11:23:32.566Z,37.90
2018-11-26T11:24:32.531Z,36.70
2018-11-26T11:25:32.578Z,35.90
2018-11-26T11:26:32.515Z,35.00
2018-11-26T11:27:32.537Z,35.80
2018-11-26T11:28:32.497Z,36.30
2018-11-26T11:29:32.481Z,36.60
2018-11-26T11:30:32.460Z,35.10
2018-11-26T11:31:32.455Z,37.10
2018-11-26T11:32:32.465Z,35.70
2018-11-26T11:33:32.432Z,37.00
2018-11-26T11:34:32.449Z,35.90
2018-11-26T11:35:32.417Z,35.00
2018-11-26T11:36:32.397Z,37.40
2018-11-26T11:37:32.438Z,32.50
2018-11-26T11:38:32.377Z,34.40
2018-11-26T11:39:32.367Z,37.00
2018-11-26T11:40:32.401Z,35.40
2018-11-26T11:41:34.454Z,35.80
2018-11-26T11:42:32.347Z,34.00
2018-11-26T11:43:32.370Z,37.00
2018-11-26T11:44:32.317Z,40.50
2018-11-26T11:45:32.314Z,38.90
2018-11-26T11:46:32.297Z,39.50
2018-11-26T11:47:32.291Z,38.90
2018-11-26T11:48:32.286Z,37.40
2018-11-26T11:49:32.268Z,39.70
2018-11-26T11:50:32.262Z,40.80
2018-11-26T11:51:32.234Z,38.80
2018-11-26T11:52:32.232Z,41.00
2018-11-26T11:53:32.251Z,40.70
2018-11-26T11:54:32.222Z,40.20
2018-11-26T11:55:32.203Z,41.10
2018-11-26T11:56:32.182Z,41.40
2018-11-26T11:57:32.188Z,42.30
2018-11-26T11:58:32.180Z,41.70
2018-11-26T11:59:32.178Z,41.10
2018-11-26T12:00:32.157Z,41.80
2018-11-26T12:01:32.131Z,40.90
2018-11-26T12:02:32.134Z,44.20
2018-11-26T12:03:32.120Z,43.10
2018-11-26T12:04:32.128Z,43.40
2018-11-26T12:05:32.082Z,42.60
2018-11-26T12:06:32.074Z,42.00
2018-11-26T12:07:32.087Z,43.60
2018-11-26T12:08:32.053Z,43.00
2018-11-26T12:09:32.037Z,45.70
2018-11-26T12:10:32.087Z,45.10
2018-11-26T12:11:32.022Z,43.30
2018-11-26T12:12:32.043Z,46.40
2018-11-26T12:13:32.013Z,44.30
2018-11-26T12:14:31.985Z,42.50
2018-11-26T12:15:32.010Z,42.40
2018-11-26T12:16:31.959Z,42.90
2018-11-26T12:17:32.001Z,44.60
2018-11-26T12:18:31.957Z,42.60
2018-11-26T12:19:31.927Z,43.10
2018-11-26T12:20:31.921Z,43.20
2018-11-26T12:21:31.919Z,44.10
2018-11-26T12:22:31.917Z,42.90
2018-11-26T12:23:31.901Z,43.70
2018-11-26T12:24:31.876Z,44.40
2018-11-26T12:25:31.871Z,43.20
2018-11-26T12:26:31.850Z,43.20
2018-11-26T12:27:31.862Z,44.30
2018-11-26T12:28:31.850Z,41.00
2018-11-26T12:29:31.819Z,46.20
2018-11-26T12:30:31.806Z,45.50
2018-11-26T12:31:31.808Z,48.70
2018-11-26T12:32:31.790Z,47.80
2018-11-26T12:33:31.807Z,51.20
2018-11-26T12:34:31.761Z,48.60
2018-11-26T12:35:31.799Z,47.30
2018-11-26T12:36:31.744Z,46.00
2018-11-26T12:37:31.740Z,48.50
2018-11-26T12:38:31.748Z,48.30
2018-11-26T12:39:31.714Z,45.40
2018-11-26T12:40:31.700Z,46.90
2018-11-26T12:41:31.687Z,46.70
2018-11-26T12:42:31.676Z,47.00
2018-11-26T12:43:31.682Z,48.50
2018-11-26T12:44:31.663Z,47.90
2018-11-26T12:45:31.646Z,49.60
2018-11-26T12:46:31.634Z,50.20
2018-11-26T12:47:31.630Z,48.80
2018-11-26T12:48:31.647Z,48.00
2018-11-26T12:49:31.600Z,48.70
2018-11-26T12:50:31.608Z,47.70
2018-11-26T12:51:31.855Z,49.80
2018-11-26T12:52:31.563Z,48.40
2018-11-26T12:53:31.561Z,50.20